Terminal Aerodrome Forecast
Issued by NWS Upton, NY

Home | Current Version | Previous Version | Text Only | Print | Product List | Glossary On
Versions: 1 2 3 4 5 6 7 8 9 10 11 12 13 14 15 16 17 18 19 20 21 22 23 24 25 26 27 28
000
FTUS41 KOKX 030815 AAA
TAFEWR
TAF AMD
KEWR 030815Z 0308/0412 08006KT P6SM OVC012
     FM031300 05008KT P6SM SCT020 OVC060
      TEMPO 0313/0315 BKN020
     FM031700 11008KT P6SM SCT060 BKN250
     FM040000 11007KT P6SM BKN250
     FM040300 08007KT P6SM SCT080 BKN200=

USA.gov is the U.S. government's official web portal to all federal, state and local government web resources and services.